Time;durP1;ratioP1;P1;durP2;ratioP2;P2;SDS_P1;SDS_P2;PMS_P1;PMS_P2;Temp;Humidity;BMP_temperature;BMP_pressure;BME280_temperature;BME280_humidity;BME280_pressure;Samples;Min_cycle;Max_cycle;Signal;HPM_P1;HPM_P2
2022/11/16 00:01:04;;;;;;;12.93;6.90;;;10.70;99.90;;;;;;5018369;28;20033;-79
2022/11/16 00:03:31;;;;;;;9.90;7.20;;;10.70;99.90;;;;;;5020025;28;20171;-79
2022/11/16 00:06:01;;;;;;;9.23;7.60;;;10.70;99.90;;;;;;5035752;28;20048;-80
2022/11/16 00:08:33;;;;;;;9.80;6.80;;;10.70;99.90;;;;;;5035112;28;20048;-80
2022/11/16 00:11:07;;;;;;;10.05;7.75;;;10.70;99.90;;;;;;4998502;28;20041;-78
2022/11/16 00:13:34;;;;;;;8.82;7.38;;;10.70;99.90;;;;;;5019802;28;20052;-81
2022/11/16 00:16:00;;;;;;;10.82;7.72;;;10.80;99.90;;;;;;5016360;28;20064;-77
2022/11/16 00:18:26;;;;;;;10.75;8.20;;;10.80;99.90;;;;;;5020575;28;20390;-81
2022/11/16 00:20:52;;;;;;;10.55;7.32;;;10.80;99.90;;;;;;5020003;28;20045;-78
2022/11/16 00:23:18;;;;;;;9.95;7.40;;;10.80;99.90;;;;;;5041576;28;20075;-80
2022/11/16 00:25:44;;;;;;;13.65;8.18;;;10.80;99.90;;;;;;5019439;28;20096;-80
2022/11/16 00:28:10;;;;;;;11.02;8.63;;;10.80;99.90;;;;;;5053707;28;20090;-79
2022/11/16 00:30:36;;;;;;;12.52;8.18;;;10.80;99.90;;;;;;5023591;28;20060;-79
2022/11/16 00:33:04;;;;;;;10.23;8.27;;;10.80;99.90;;;;;;5031641;28;20136;-79
2022/11/16 00:35:30;;;;;;;9.82;8.57;;;11.60;99.90;;;;;;5040070;28;20048;-79
2022/11/16 00:37:56;;;;;;;13.00;8.43;;;10.80;99.90;;;;;;5014953;28;20040;-81
2022/11/16 00:40:22;;;;;;;11.57;8.60;;;10.80;99.90;;;;;;5032677;28;20052;-80
2022/11/16 00:42:47;;;;;;;12.35;8.68;;;10.90;99.90;;;;;;5035330;28;20047;-81
2022/11/16 00:45:13;;;;;;;12.25;8.70;;;10.90;99.90;;;;;;5002597;28;20127;-78
2022/11/16 00:47:39;;;;;;;11.23;9.77;;;10.90;99.90;;;;;;5050891;28;20109;-79
2022/11/16 00:50:05;;;;;;;13.35;10.35;;;10.90;99.90;;;;;;5030561;28;20033;-80
2022/11/16 00:52:31;;;;;;;13.35;9.43;;;10.90;99.90;;;;;;5041429;28;20037;-80
2022/11/16 00:54:56;;;;;;;13.27;9.90;;;10.90;99.90;;;;;;5023050;28;20040;-80
2022/11/16 00:57:23;;;;;;;13.40;10.27;;;10.90;99.90;;;;;;5010066;28;20048;-80
2022/11/16 00:59:48;;;;;;;13.85;11.55;;;10.90;99.90;;;;;;5012785;28;20100;-81
2022/11/16 01:02:14;;;;;;;12.77;10.98;;;10.90;99.90;;;;;;5031550;28;20037;-81
2022/11/16 01:04:40;;;;;;;15.88;11.20;;;11.40;99.90;;;;;;5037067;28;20051;-79
2022/11/16 01:07:06;;;;;;;15.15;11.65;;;10.90;99.90;;;;;;5003302;28;20072;-81
2022/11/16 01:09:31;;;;;;;16.80;12.55;;;10.90;99.90;;;;;;5035459;28;20040;-81
2022/11/16 01:12:11;;;;;;;16.17;12.95;;;11.00;99.90;;;;;;5004720;28;20032;-80
2022/11/16 01:14:39;;;;;;;18.48;13.32;;;11.30;99.90;;;;;;5021642;28;20044;-80
2022/11/16 01:17:06;;;;;;;16.27;13.38;;;10.90;99.90;;;;;;5043234;28;20037;-80
2022/11/16 01:19:32;;;;;;;14.80;12.82;;;11.00;99.90;;;;;;5041882;28;20060;-80
2022/11/16 01:21:58;;;;;;;14.07;12.48;;;11.00;99.90;;;;;;5040443;28;20455;-79
2022/11/16 01:24:25;;;;;;;19.60;14.52;;;11.00;99.90;;;;;;5037796;28;20358;-80
2022/11/16 01:26:55;;;;;;;16.85;13.93;;;11.00;99.90;;;;;;5011517;28;20040;-80
2022/11/16 01:29:23;;;;;;;18.50;14.52;;;11.00;99.90;;;;;;5011198;28;20495;-80
2022/11/16 01:31:49;;;;;;;14.48;12.68;;;11.00;99.90;;;;;;5039464;28;20029;-79
2022/11/16 01:34:15;;;;;;;19.85;14.48;;;11.00;99.90;;;;;;5040319;28;20140;-80
2022/11/16 01:36:41;;;;;;;21.50;16.17;;;11.10;99.90;;;;;;5012053;28;20055;-80
2022/11/16 01:39:09;;;;;;;19.48;14.77;;;11.10;99.90;;;;;;5034781;28;20037;-81
2022/11/16 01:41:35;;;;;;;20.33;15.75;;;11.00;99.90;;;;;;4998895;28;20471;-79
2022/11/16 01:44:03;;;;;;;21.30;17.38;;;11.00;99.90;;;;;;4997523;28;20037;-79
2022/11/16 01:46:30;;;;;;;19.75;15.40;;;11.00;99.90;;;;;;5045011;28;20041;-80
2022/11/16 01:49:04;;;;;;;19.95;16.20;;;11.00;99.90;;;;;;5031295;28;20090;-81
2022/11/16 01:51:32;;;;;;;22.48;16.10;;;11.10;99.90;;;;;;5015399;28;20033;-80
2022/11/16 01:54:00;;;;;;;18.40;15.00;;;11.10;99.90;;;;;;5051661;28;20102;-79
2022/11/16 01:56:26;;;;;;;21.73;16.05;;;11.10;99.90;;;;;;5034238;28;20049;-80
2022/11/16 01:58:52;;;;;;;19.55;16.35;;;11.10;99.90;;;;;;5031619;28;20129;-79
2022/11/16 02:01:17;;;;;;;21.08;16.17;;;11.10;99.90;;;;;;5035185;28;20059;-81
2022/11/16 02:03:43;;;;;;;19.17;16.20;;;11.10;99.90;;;;;;5022435;28;20217;-81
2022/11/16 02:06:36;;;;;;;21.63;17.02;;;11.10;99.90;;;;;;5015722;28;20461;-81
2022/11/16 02:12:52;;;;;;;20.38;16.77;;;11.10;99.90;;;;;;5013892;28;20041;-80
2022/11/16 02:15:30;;;;;;;21.98;16.75;;;11.10;99.90;;;;;;5014419;28;20102;-81
2022/11/16 02:18:11;;;;;;;20.88;16.60;;;11.00;99.90;;;;;;5033247;28;20089;-81
2022/11/16 02:20:45;;;;;;;22.92;17.17;;;11.10;99.90;;;;;;5035884;28;20053;-81
2022/11/16 02:23:29;;;;;;;;;;;11.10;99.90;;;;;;5033688;28;20060;-80
2022/11/16 02:26:07;;;;;;;21.55;16.90;;;11.10;99.90;;;;;;5028424;28;19920;-81
2022/11/16 02:29:14;;;;;;;22.30;17.75;;;11.10;99.90;;;;;;5016387;28;20080;-80
2022/11/16 02:31:49;;;;;;;24.25;18.00;;;11.10;99.90;;;;;;5003151;28;20107;-80
2022/11/16 02:34:16;;;;;;;23.67;18.40;;;11.10;99.90;;;;;;5031719;28;20056;-81
2022/11/16 02:36:44;;;;;;;21.35;15.55;;;11.10;99.90;;;;;;5017302;28;20055;-80
2022/11/16 02:39:15;;;;;;;24.20;18.92;;;11.10;99.90;;;;;;5033011;28;20034;-81
2022/11/16 02:41:43;;;;;;;23.33;18.60;;;11.10;99.90;;;;;;5034566;28;20045;-80
2022/11/16 02:44:14;;;;;;;25.02;19.13;;;11.10;99.90;;;;;;5031016;28;20047;-80
2022/11/16 02:46:45;;;;;;;24.58;17.92;;;11.10;99.90;;;;;;5018520;28;20037;-81
2022/11/16 02:49:16;;;;;;;24.02;17.58;;;11.10;99.90;;;;;;5018364;28;20069;-81
2022/11/16 02:51:43;;;;;;;21.85;17.23;;;11.10;99.90;;;;;;5009923;28;20036;-81
2022/11/16 02:54:17;;;;;;;26.73;18.30;;;11.10;99.90;;;;;;5014968;28;20041;-80
2022/11/16 02:57:03;;;;;;;22.48;17.98;;;11.10;99.90;;;;;;5033713;28;20041;-80
2022/11/16 03:00:04;;;;;;;27.75;19.23;;;11.20;99.90;;;;;;5032477;28;20041;-81
2022/11/16 03:02:33;;;;;;;19.83;16.55;;;11.20;99.90;;;;;;5003539;28;20049;-81
2022/11/16 03:05:08;;;;;;;23.10;17.92;;;11.20;99.90;;;;;;5035457;28;20524;-81
2022/11/16 03:07:43;;;;;;;22.52;17.90;;;11.20;99.90;;;;;;5015909;28;20089;-81
2022/11/16 03:11:57;;;;;;;22.02;17.45;;;11.20;99.90;;;;;;5014996;28;20090;-79
2022/11/16 03:12:57;;;;;;;21.58;17.40;;;11.20;99.90;;;;;;5020041;28;20996;-82
2022/11/16 03:15:23;;;;;;;23.67;17.63;;;11.20;99.90;;;;;;5017307;28;20044;-81
2022/11/16 03:17:49;;;;;;;21.83;17.70;;;11.20;99.90;;;;;;5015096;28;20109;-82
2022/11/16 03:20:21;;;;;;;23.90;17.80;;;11.20;99.90;;;;;;5020419;28;20033;-81
2022/11/16 03:22:52;;;;;;;21.88;17.33;;;11.30;99.90;;;;;;5035509;28;20120;-80
2022/11/16 03:25:19;;;;;;;22.33;17.13;;;11.20;99.90;;;;;;5032080;28;20591;-80
2022/11/16 03:28:04;;;;;;;27.10;18.38;;;11.20;99.90;;;;;;5013309;28;20036;-80
2022/11/16 03:30:34;;;;;;;23.17;17.42;;;11.20;99.90;;;;;;5033387;28;20047;-80
2022/11/16 03:33:06;;;;;;;24.42;17.30;;;11.20;99.90;;;;;;5019144;28;20044;-80
2022/11/16 03:35:40;;;;;;;20.90;17.55;;;11.20;99.90;;;;;;5037720;28;20033;-81
2022/11/16 03:38:08;;;;;;;20.55;17.08;;;11.20;99.90;;;;;;5020372;28;20041;-80
2022/11/16 03:40:36;;;;;;;19.30;15.85;;;11.20;99.90;;;;;;5018879;28;20562;-79
2022/11/16 03:43:05;;;;;;;20.05;15.93;;;11.20;99.90;;;;;;5014640;28;20040;-81
2022/11/16 03:45:31;;;;;;;22.23;16.75;;;11.20;99.90;;;;;;5013612;28;20038;-81
2022/11/16 03:47:57;;;;;;;20.77;17.02;;;11.10;99.90;;;;;;5019789;28;20111;-81
2022/11/16 03:50:22;;;;;;;19.05;15.23;;;11.20;99.90;;;;;;5040567;28;20477;-81
2022/11/16 03:52:48;;;;;;;22.70;16.73;;;11.20;99.90;;;;;;5040644;28;20786;-81
2022/11/16 03:55:14;;;;;;;19.90;16.48;;;11.20;99.90;;;;;;5028956;28;20508;-80
2022/11/16 03:57:40;;;;;;;20.30;15.52;;;11.20;99.90;;;;;;5017674;28;20715;-81
2022/11/16 04:00:06;;;;;;;20.02;16.95;;;11.20;99.90;;;;;;5013244;28;20813;-79
2022/11/16 04:02:32;;;;;;;18.23;15.45;;;11.30;99.90;;;;;;5001489;28;20041;-81
2022/11/16 04:24:22;;;;;;;17.60;14.13;;;11.30;99.90;;;;;;5032922;28;19963;-81
2022/11/16 04:29:39;;;;;;;17.77;14.50;;;11.30;99.90;;;;;;5035608;28;20115;-79
2022/11/16 04:37:51;;;;;;;16.63;14.18;;;11.30;99.90;;;;;;5037721;28;20045;-81
2022/11/16 04:40:19;;;;;;;17.55;14.80;;;11.30;99.90;;;;;;5028860;28;20096;-81
2022/11/16 04:42:53;;;;;;;17.13;14.30;;;11.30;99.90;;;;;;5041078;28;20128;-81
2022/11/16 04:48:03;;;;;;;;;;;11.30;99.90;;;;;;5035636;28;19921;-81
2022/11/16 04:50:29;;;;;;;16.48;13.80;;;11.30;99.90;;;;;;5019521;28;20442;-81
2022/11/16 04:52:55;;;;;;;20.90;14.65;;;11.30;99.90;;;;;;5016843;28;20481;-81
2022/11/16 04:55:20;;;;;;;16.77;14.38;;;11.30;99.90;;;;;;5033520;28;20032;-81
2022/11/16 04:57:46;;;;;;;17.48;13.80;;;11.30;99.90;;;;;;5021197;28;20742;-80
2022/11/16 05:00:12;;;;;;;20.00;15.30;;;11.30;99.90;;;;;;5027883;28;20094;-80
2022/11/16 05:02:38;;;;;;;16.17;13.55;;;11.30;99.90;;;;;;5019466;28;20056;-80
2022/11/16 05:05:04;;;;;;;16.38;13.32;;;11.40;99.90;;;;;;5016365;28;20041;-80
2022/11/16 05:07:30;;;;;;;16.27;14.05;;;11.30;99.90;;;;;;5006434;28;20410;-80
2022/11/16 05:09:56;;;;;;;16.25;13.82;;;11.30;99.90;;;;;;5001867;28;20105;-80
2022/11/16 05:12:26;;;;;;;15.90;13.75;;;11.30;99.90;;;;;;4997989;28;20044;-81
2022/11/16 05:14:54;;;;;;;15.60;13.90;;;11.30;99.90;;;;;;5034147;28;20044;-80
2022/11/16 05:17:20;;;;;;;16.40;13.48;;;11.30;99.90;;;;;;5036777;28;20048;-81
2022/11/16 05:22:31;;;;;;;14.85;12.98;;;11.50;99.90;;;;;;5033926;28;20071;-81
2022/11/16 05:24:57;;;;;;;17.02;14.02;;;11.30;99.90;;;;;;5017851;28;20041;-81
2022/11/16 05:27:24;;;;;;;17.40;13.45;;;11.40;99.90;;;;;;5033753;28;20115;-81
2022/11/16 05:29:50;;;;;;;15.65;13.50;;;11.30;99.90;;;;;;5017451;28;20029;-81
2022/11/16 05:32:17;;;;;;;17.23;13.52;;;11.40;99.90;;;;;;5035983;28;20083;-82
2022/11/16 05:34:43;;;;;;;16.85;14.32;;;11.40;99.90;;;;;;5010870;28;20100;-81
2022/11/16 05:37:09;;;;;;;15.63;13.40;;;11.30;99.90;;;;;;5015491;28;20556;-82
2022/11/16 05:39:35;;;;;;;16.55;13.02;;;11.40;99.90;;;;;;5029398;28;20036;-82
2022/11/16 05:42:01;;;;;;;16.88;13.75;;;11.40;99.90;;;;;;5027870;28;20037;-80
2022/11/16 05:44:27;;;;;;;15.98;13.30;;;11.40;99.90;;;;;;5013050;28;20067;-81
2022/11/16 05:46:54;;;;;;;15.60;13.65;;;11.40;99.90;;;;;;5003258;28;20517;-81
2022/11/16 05:49:19;;;;;;;18.95;15.10;;;11.40;99.90;;;;;;5019460;28;20071;-82
2022/11/16 05:51:46;;;;;;;17.90;13.85;;;11.00;99.90;;;;;;5016712;28;20057;-81
2022/11/16 05:54:18;;;;;;;14.35;12.82;;;11.40;99.90;;;;;;5015631;28;20041;-81
2022/11/16 05:56:45;;;;;;;15.75;13.18;;;11.40;99.90;;;;;;5031871;28;20433;-82
2022/11/16 05:59:12;;;;;;;15.65;12.65;;;11.40;99.90;;;;;;5015157;28;20608;-81
2022/11/16 06:01:38;;;;;;;15.75;13.10;;;11.40;99.90;;;;;;5011769;28;20047;-81
2022/11/16 06:04:04;;;;;;;15.10;12.70;;;11.40;99.90;;;;;;5013139;28;20051;-81
2022/11/16 06:06:30;;;;;;;14.05;12.55;;;11.40;99.90;;;;;;5030426;28;20045;-80
2022/11/16 06:08:56;;;;;;;16.48;13.38;;;11.40;99.90;;;;;;5016970;28;20043;-80
2022/11/16 06:11:22;;;;;;;15.60;12.85;;;11.30;99.90;;;;;;5016000;28;20036;-80
2022/11/16 06:13:48;;;;;;;15.98;11.73;;;11.40;99.90;;;;;;5030723;28;20055;-81
2022/11/16 06:16:14;;;;;;;18.42;13.18;;;11.30;99.90;;;;;;5031528;28;20053;-80
2022/11/16 06:18:42;;;;;;;15.77;12.35;;;11.30;99.90;;;;;;5017122;28;20100;-80
2022/11/16 06:21:09;;;;;;;14.30;11.43;;;11.30;99.90;;;;;;5031640;28;20048;-80
2022/11/16 06:23:35;;;;;;;16.27;12.30;;;11.30;99.90;;;;;;5015785;28;20453;-81
2022/11/16 06:26:01;;;;;;;15.95;11.20;;;11.30;99.90;;;;;;5036953;28;20048;-81
2022/11/16 06:28:27;;;;;;;16.33;11.90;;;11.30;99.90;;;;;;5017263;28;20037;-80
2022/11/16 06:30:53;;;;;;;13.40;10.48;;;11.30;99.90;;;;;;5012007;28;20656;-80
2022/11/16 06:33:19;;;;;;;13.98;10.65;;;11.30;99.90;;;;;;5016502;28;20102;-82
2022/11/16 06:35:45;;;;;;;15.63;10.93;;;11.30;99.90;;;;;;5015141;28;20133;-80
2022/11/16 06:38:17;;;;;;;15.07;11.48;;;11.30;99.90;;;;;;5012786;28;20128;-79
2022/11/16 06:40:44;;;;;;;15.15;11.18;;;11.20;99.90;;;;;;5017039;28;20060;-79
2022/11/16 06:43:10;;;;;;;14.23;11.23;;;11.20;99.90;;;;;;5029868;28;20043;-78
2022/11/16 06:45:36;;;;;;;16.02;11.35;;;11.20;99.90;;;;;;5012300;28;20034;-81
2022/11/16 06:48:02;;;;;;;15.02;10.93;;;11.20;99.90;;;;;;5016959;28;20040;-81
2022/11/16 06:50:27;;;;;;;17.38;12.13;;;11.20;99.90;;;;;;5016087;28;20029;-81
2022/11/16 06:52:53;;;;;;;15.00;11.77;;;11.20;99.90;;;;;;4998838;28;20160;-80
2022/11/16 06:55:19;;;;;;;16.55;12.20;;;11.20;99.90;;;;;;5013964;28;20033;-81
2022/11/16 06:57:45;;;;;;;15.40;11.02;;;11.20;99.90;;;;;;5017027;28;20140;-81
2022/11/16 07:00:11;;;;;;;15.40;12.23;;;11.20;99.90;;;;;;5015145;28;20106;-80
2022/11/16 07:02:38;;;;;;;15.70;11.75;;;11.20;99.90;;;;;;4995237;28;20071;-79
2022/11/16 07:05:05;;;;;;;16.55;11.73;;;11.20;99.90;;;;;;5010043;28;20051;-79
2022/11/16 07:07:31;;;;;;;14.63;11.13;;;11.20;99.90;;;;;;5033640;28;20060;-79
2022/11/16 07:09:57;;;;;;;14.77;12.00;;;11.20;99.90;;;;;;5026806;28;20037;-79
2022/11/16 07:12:22;;;;;;;19.65;13.50;;;11.20;99.90;;;;;;5021819;28;20037;-80
2022/11/16 07:14:48;;;;;;;16.45;12.35;;;11.10;99.90;;;;;;4993272;28;20041;-78
2022/11/16 07:17:14;;;;;;;18.58;13.93;;;11.10;99.90;;;;;;5001371;28;20541;-79
2022/11/16 07:19:39;;;;;;;15.55;12.35;;;11.10;99.90;;;;;;4998816;28;20048;-80
2022/11/16 07:22:06;;;;;;;15.48;12.32;;;11.10;99.90;;;;;;5000428;28;20425;-79
2022/11/16 07:24:32;;;;;;;21.60;14.88;;;11.10;99.90;;;;;;5014715;28;20040;-80
2022/11/16 07:26:58;;;;;;;17.30;12.55;;;11.10;99.90;;;;;;5013485;28;20061;-79
2022/11/16 07:29:24;;;;;;;13.43;10.30;;;11.10;99.90;;;;;;5008826;28;20061;-78
2022/11/16 07:31:49;;;;;;;17.10;13.35;;;11.10;99.90;;;;;;5027049;28;20041;-78
2022/11/16 07:34:15;;;;;;;15.38;10.90;;;11.10;99.90;;;;;;5029147;28;20421;-79
2022/11/16 07:36:41;;;;;;;17.05;11.75;;;11.10;99.90;;;;;;5014768;28;20044;-78
2022/11/16 07:39:09;;;;;;;12.77;10.43;;;11.00;99.90;;;;;;5026634;28;21056;-80
2022/11/16 07:41:35;;;;;;;15.77;11.90;;;11.10;99.90;;;;;;5025773;28;20037;-78
2022/11/16 07:44:01;;;;;;;17.02;11.90;;;11.00;99.90;;;;;;5022080;28;20072;-78
2022/11/16 07:46:26;;;;;;;14.23;9.95;;;11.00;99.90;;;;;;5012088;28;20041;-78
2022/11/16 07:48:52;;;;;;;14.77;11.57;;;11.10;99.90;;;;;;5011415;28;20626;-78
2022/11/16 07:51:19;;;;;;;12.98;9.80;;;11.00;99.90;;;;;;5014317;28;20103;-79
2022/11/16 07:53:45;;;;;;;13.35;10.68;;;11.00;99.90;;;;;;5026210;28;20076;-79
2022/11/16 07:56:11;;;;;;;13.52;10.82;;;11.00;99.90;;;;;;5009581;28;20501;-79
2022/11/16 07:58:38;;;;;;;16.25;11.65;;;11.00;99.90;;;;;;5002619;28;20048;-79
2022/11/16 08:01:13;;;;;;;20.85;12.70;;;11.00;99.90;;;;;;4996570;28;20029;-80
2022/11/16 08:03:40;;;;;;;17.10;12.90;;;11.00;99.90;;;;;;5026051;28;20053;-79
2022/11/16 08:06:12;;;;;;;14.77;11.98;;;11.00;99.90;;;;;;5011568;28;20405;-77
2022/11/16 08:08:37;;;;;;;15.85;11.30;;;11.00;99.90;;;;;;5028455;28;20041;-79
2022/11/16 08:11:05;;;;;;;16.58;12.88;;;11.00;99.90;;;;;;5010277;28;20540;-78
2022/11/16 08:13:33;;;;;;;16.27;13.57;;;11.00;99.90;;;;;;5014009;28;20048;-80
2022/11/16 08:16:01;;;;;;;21.73;14.75;;;11.00;99.90;;;;;;5010839;28;20413;-78
2022/11/16 08:18:30;;;;;;;14.75;11.65;;;11.00;99.90;;;;;;5000644;28;20102;-78
2022/11/16 08:21:00;;;;;;;17.02;13.77;;;11.00;99.90;;;;;;5023717;28;20124;-79
2022/11/16 08:23:30;;;;;;;16.88;13.90;;;11.00;99.90;;;;;;5012042;28;20401;-79
2022/11/16 08:26:08;;;;;;;16.42;12.82;;;11.00;99.90;;;;;;5013618;28;20512;-79
2022/11/16 08:28:35;;;;;;;17.88;13.18;;;11.00;99.90;;;;;;5030251;28;20064;-79
2022/11/16 08:31:11;;;;;;;18.83;14.05;;;11.00;99.90;;;;;;5012011;28;20033;-78
2022/11/16 08:33:36;;;;;;;17.02;12.75;;;11.00;99.90;;;;;;5030755;28;20033;-77
2022/11/16 08:36:07;;;;;;;17.15;12.90;;;11.00;99.90;;;;;;5018046;28;20524;-77
2022/11/16 08:38:33;;;;;;;13.57;10.75;;;11.00;99.90;;;;;;5003449;28;20765;-78
2022/11/16 08:40:59;;;;;;;17.80;13.43;;;11.00;99.90;;;;;;5005998;28;20135;-77
2022/11/16 08:43:25;;;;;;;16.33;13.02;;;11.10;99.90;;;;;;5002297;28;20046;-79
2022/11/16 08:45:52;;;;;;;18.65;12.98;;;11.10;99.90;;;;;;5015539;28;20040;-77
2022/11/16 08:48:18;;;;;;;18.20;13.95;;;11.10;99.90;;;;;;5031450;28;20052;-78
2022/11/16 08:50:44;;;;;;;19.25;13.43;;;11.10;99.90;;;;;;5034320;28;20479;-78
2022/11/16 08:53:11;;;;;;;19.25;14.32;;;11.10;99.90;;;;;;5014799;28;20045;-80
2022/11/16 08:55:37;;;;;;;17.40;12.95;;;11.10;99.90;;;;;;5016363;28;20142;-82
2022/11/16 08:58:03;;;;;;;19.67;14.32;;;11.20;99.90;;;;;;5045505;28;20112;-79
2022/11/16 09:00:29;;;;;;;18.88;14.80;;;11.20;99.90;;;;;;5033323;28;20525;-77
2022/11/16 09:02:55;;;;;;;19.27;14.20;;;11.20;99.90;;;;;;4998654;28;20390;-78
2022/11/16 09:05:21;;;;;;;17.00;13.38;;;10.80;99.90;;;;;;5017067;28;20437;-80
2022/11/16 09:07:46;;;;;;;23.67;14.65;;;11.30;99.90;;;;;;5030395;28;20109;-79
2022/11/16 09:10:12;;;;;;;20.25;14.90;;;11.30;99.90;;;;;;5051501;28;20033;-81
2022/11/16 09:12:38;;;;;;;21.70;15.02;;;11.30;99.90;;;;;;5048085;28;20509;-80
2022/11/16 09:15:05;;;;;;;18.55;14.07;;;11.40;99.90;;;;;;5015184;28;20036;-80
2022/11/16 09:17:31;;;;;;;22.70;15.65;;;11.30;99.90;;;;;;5034148;28;20425;-80
2022/11/16 09:19:56;;;;;;;20.33;14.40;;;11.40;99.90;;;;;;5031513;28;20037;-81
2022/11/16 09:22:22;;;;;;;21.48;14.55;;;11.70;99.90;;;;;;5003603;28;20041;-80
2022/11/16 09:24:48;;;;;;;19.42;14.23;;;11.40;99.90;;;;;;5004157;28;20040;-80
2022/11/16 09:27:16;;;;;;;22.92;14.43;;;11.40;99.90;;;;;;5032667;28;20097;-82
2022/11/16 09:29:42;;;;;;;18.50;15.10;;;11.50;99.90;;;;;;5022395;28;20041;-81
2022/11/16 09:32:08;;;;;;;21.88;15.43;;;11.40;99.90;;;;;;5048128;28;21349;-78
2022/11/16 09:34:36;;;;;;;24.65;15.57;;;11.60;99.90;;;;;;5032130;28;20055;-80
2022/11/16 09:37:02;;;;;;;20.17;15.18;;;11.60;99.90;;;;;;5012058;28;20068;-80
2022/11/16 09:39:30;;;;;;;22.08;16.15;;;11.50;99.90;;;;;;5011707;28;20087;-81
2022/11/16 09:42:08;;;;;;;24.95;16.45;;;11.60;99.90;;;;;;5046628;28;20073;-83
2022/11/16 09:44:56;;;;;;;25.42;17.42;;;11.60;99.90;;;;;;5031811;28;20033;-80
2022/11/16 09:47:38;;;;;;;24.27;18.13;;;11.70;99.90;;;;;;5044561;28;20041;-81
2022/11/16 09:50:06;;;;;;;24.60;17.48;;;11.70;99.90;;;;;;5052045;28;20044;-79
2022/11/16 09:52:47;;;;;;;29.52;17.77;;;11.80;99.90;;;;;;5048623;28;20039;-79
2022/11/16 09:55:41;;;;;;;27.63;17.80;;;11.80;99.90;;;;;;5034482;28;20037;-83
2022/11/16 09:58:20;;;;;;;25.58;17.42;;;11.80;99.90;;;;;;5014171;28;20140;-84
2022/11/16 10:00:51;;;;;;;27.55;18.33;;;11.80;99.90;;;;;;5030682;28;20051;-81
2022/11/16 10:03:18;;;;;;;21.55;16.63;;;11.80;99.90;;;;;;5023144;28;20041;-81
2022/11/16 10:06:02;;;;;;;26.27;16.92;;;11.80;99.90;;;;;;4999430;28;20485;-80
2022/11/16 10:08:47;;;;;;;19.27;14.98;;;11.90;99.90;;;;;;5015110;28;20136;-80
2022/11/16 10:11:27;;;;;;;25.27;14.75;;;12.10;99.90;;;;;;5013337;28;20227;-81
2022/11/16 10:13:58;;;;;;;22.65;14.82;;;12.20;99.90;;;;;;5030908;28;20045;-81
2022/11/16 10:16:33;;;;;;;20.42;14.95;;;12.20;99.90;;;;;;5030138;28;20069;-80
2022/11/16 10:19:09;;;;;;;17.65;12.05;;;12.20;99.90;;;;;;5030288;28;20041;-79
2022/11/16 10:21:54;;;;;;;20.10;13.10;;;12.20;99.90;;;;;;5028635;28;20037;-80
2022/11/16 10:24:23;;;;;;;16.92;12.60;;;12.20;99.90;;;;;;5031946;28;20044;-82
2022/11/16 10:26:58;;;;;;;17.52;12.80;;;12.20;99.90;;;;;;5017789;28;20099;-81
2022/11/16 10:29:42;;;;;;;16.75;11.23;;;12.20;99.90;;;;;;5014281;28;20467;-80
2022/11/16 10:32:20;;;;;;;17.23;10.57;;;12.20;99.90;;;;;;5017420;28;20056;-80
2022/11/16 10:35:08;;;;;;;15.60;10.07;;;12.20;99.90;;;;;;5050562;28;20559;-78
2022/11/16 10:37:58;;;;;;;18.38;10.18;;;12.20;99.90;;;;;;5031490;28;20087;-79
2022/11/16 10:40:34;;;;;;;13.57;8.88;;;12.10;99.90;;;;;;5013875;28;20052;-80
2022/11/16 10:43:10;;;;;;;14.40;10.40;;;12.20;99.90;;;;;;5015198;28;20051;-81
2022/11/16 10:45:43;;;;;;;13.43;9.27;;;12.20;99.90;;;;;;5024224;28;20114;-81
2022/11/16 10:48:13;;;;;;;18.77;9.88;;;12.30;99.90;;;;;;5018942;28;20675;-77
2022/11/16 10:50:50;;;;;;;13.05;8.98;;;12.40;99.90;;;;;;5014875;28;20497;-79
2022/11/16 10:53:34;;;;;;;14.30;9.27;;;12.60;99.90;;;;;;5033144;28;20037;-79
2022/11/16 10:56:24;;;;;;;14.25;10.07;;;12.70;99.90;;;;;;5031168;28;20041;-78
2022/11/16 10:58:58;;;;;;;15.05;9.40;;;12.80;99.90;;;;;;5011788;28;20041;-79
2022/11/16 11:01:50;;;;;;;14.02;9.45;;;12.90;99.90;;;;;;5027820;28;20098;-80
2022/11/16 11:04:26;;;;;;;17.35;10.35;;;13.00;99.90;;;;;;5009014;28;20045;-80
2022/11/16 11:06:59;;;;;;;12.05;8.65;;;13.00;99.90;;;;;;5007846;28;20066;-78
2022/11/16 11:09:30;;;;;;;17.00;8.75;;;13.10;99.90;;;;;;5013406;28;20033;-80
2022/11/16 11:15:02;;;;;;;13.05;9.88;;;13.30;99.90;;;;;;5031996;28;20055;-77
2022/11/16 11:17:30;;;;;;;16.27;8.85;;;13.40;99.90;;;;;;5026490;28;20116;-79
2022/11/16 11:19:58;;;;;;;16.38;9.55;;;13.50;99.90;;;;;;5029745;28;20041;-79
2022/11/16 11:22:24;;;;;;;12.38;9.27;;;13.40;99.90;;;;;;5009257;28;20070;-78
2022/11/16 11:24:50;;;;;;;15.43;8.95;;;13.40;99.90;;;;;;5013058;28;20128;-78
2022/11/16 11:27:31;;;;;;;13.57;9.02;;;13.30;99.90;;;;;;5028278;28;20490;-78
2022/11/16 11:30:00;;;;;;;11.38;8.68;;;13.30;99.90;;;;;;5027088;28;20405;-77
2022/11/16 11:32:38;;;;;;;14.73;8.93;;;13.30;99.90;;;;;;5027239;28;20045;-78
2022/11/16 11:35:05;;;;;;;15.00;7.78;;;13.30;99.90;;;;;;5024029;28;20033;-79
2022/11/16 11:37:37;;;;;;;12.63;7.75;;;13.20;99.90;;;;;;5024221;28;20048;-76
2022/11/16 11:40:20;;;;;;;12.13;7.85;;;13.20;99.90;;;;;;5023866;28;20473;-78
2022/11/16 11:42:55;;;;;;;13.20;7.72;;;13.10;99.90;;;;;;5029518;28;20214;-78
2022/11/16 11:45:42;;;;;;;10.15;7.07;;;13.10;99.90;;;;;;5025692;28;20048;-78
2022/11/16 11:48:26;;;;;;;10.77;7.07;;;13.20;99.90;;;;;;5010238;28;20511;-76
2022/11/16 11:50:56;;;;;;;10.35;6.18;;;13.40;99.90;;;;;;5022848;28;20036;-78
2022/11/16 11:53:50;;;;;;;11.45;6.00;;;13.50;99.90;;;;;;5010477;28;20469;-78
2022/11/16 11:56:16;;;;;;;8.07;5.53;;;13.50;99.90;;;;;;5031920;28;20044;-79
2022/11/16 11:58:43;;;;;;;13.50;5.88;;;13.50;99.90;;;;;;5008193;28;20139;-81
2022/11/16 12:01:47;;;;;;;11.77;5.65;;;13.50;99.90;;;;;;5016394;28;20080;-79
2022/11/16 12:04:13;;;;;;;;;;;13.50;99.90;;;;;;5014836;28;20319;-79
2022/11/16 12:06:46;;;;;;;15.75;5.30;;;13.50;99.90;;;;;;5033811;28;19925;-80
2022/11/16 12:09:34;;;;;;;9.32;4.93;;;13.60;99.90;;;;;;5030028;28;20092;-79
2022/11/16 12:12:22;;;;;;;9.57;4.72;;;13.50;99.90;;;;;;5033753;28;20045;-77
2022/11/16 12:15:27;;;;;;;9.45;5.13;;;13.40;99.90;;;;;;5033603;28;20037;-80
2022/11/16 12:18:11;;;;;;;10.13;4.60;;;13.30;99.90;;;;;;4957627;28;20126;-80
2022/11/16 12:20:45;;;;;;;9.18;4.57;;;13.10;99.90;;;;;;5022936;28;20045;-79
2022/11/16 12:23:26;;;;;;;;;;;13.00;99.90;;;;;;5030558;28;20090;-78
2022/11/16 12:26:03;;;;;;;11.02;4.15;;;13.00;99.90;;;;;;5032736;28;19917;-78
2022/11/16 12:28:41;;;;;;;11.93;5.10;;;12.90;99.90;;;;;;5012626;28;20073;-78
2022/11/16 12:31:31;;;;;;;9.13;4.00;;;13.00;99.90;;;;;;5015128;28;20455;-77
2022/11/16 12:34:12;;;;;;;7.60;3.97;;;12.90;99.90;;;;;;5031795;28;20068;-78
2022/11/16 12:36:56;;;;;;;9.45;3.78;;;12.90;99.90;;;;;;5029803;28;20029;-78
2022/11/16 12:39:29;;;;;;;15.57;3.58;;;12.90;99.90;;;;;;5004311;28;20073;-78
2022/11/16 12:41:54;;;;;;;10.18;3.30;;;12.80;99.90;;;;;;4999577;28;20040;-78
2022/11/16 12:44:45;;;;;;;10.93;3.15;;;12.80;99.90;;;;;;5031371;28;20517;-78
2022/11/16 12:47:26;;;;;;;12.80;4.22;;;12.70;99.90;;;;;;5029202;28;20622;-78
2022/11/16 12:49:57;;;;;;;10.38;3.33;;;12.60;99.90;;;;;;5029203;28;20029;-79
2022/11/16 12:52:41;;;;;;;12.38;3.65;;;12.60;99.90;;;;;;5025265;28;20147;-79
2022/11/16 12:55:30;;;;;;;7.43;3.10;;;12.60;99.90;;;;;;5026426;28;20421;-78
2022/11/16 12:58:12;;;;;;;7.32;3.00;;;12.60;99.90;;;;;;5027945;28;20045;-78
2022/11/16 13:01:01;;;;;;;10.48;3.28;;;12.60;99.90;;;;;;5020301;28;20627;-77
2022/11/16 13:03:45;;;;;;;7.68;3.20;;;12.60;99.90;;;;;;5010128;28;20052;-78
2022/11/16 13:06:19;;;;;;;9.50;3.08;;;12.60;99.90;;;;;;5025342;28;20045;-78
2022/11/16 13:09:15;;;;;;;10.07;3.15;;;12.60;99.90;;;;;;5032144;28;20040;-79
2022/11/16 13:11:56;;;;;;;10.18;2.97;;;12.60;99.90;;;;;;5024654;28;20071;-79
2022/11/16 13:14:41;;;;;;;10.95;2.80;;;12.50;99.90;;;;;;5010970;28;20139;-78
2022/11/16 13:17:13;;;;;;;9.18;3.15;;;12.50;99.90;;;;;;5028408;28;20040;-78
2022/11/16 13:19:43;;;;;;;7.80;2.47;;;12.50;99.90;;;;;;5031424;28;20044;-78
2022/11/16 13:22:16;;;;;;;11.88;3.13;;;12.50;99.90;;;;;;5033098;28;20037;-78
2022/11/16 13:24:44;;;;;;;11.25;2.60;;;12.50;99.90;;;;;;5013268;28;20099;-78
2022/11/16 13:27:42;;;;;;;8.07;3.35;;;12.50;99.90;;;;;;5028085;28;21718;-78
2022/11/16 13:30:23;;;;;;;13.85;2.90;;;12.40;99.90;;;;;;5018868;28;20047;-79